Terminal Aerodrome Forecast
Issued by NWS

Home | Current Version | Previous Version | Text Only | Print | Product List | Glossary On
Versions: 1 2 3 4 5 6 7 8 9 10 11 12 13
000
FTUS41 KCAR 012320
TAFPQI
TAF
KPQI 012320Z 0200/0224 09005KT P6SM OVC090
     FM020500 17006KT P6SM VCSH OVC040
     FM021500 14007KT 5SM -RA BR OVC025
     FM022100 14008KT P6SM -SHRA OVC020=

USA.gov is the U.S. government's official web portal to all federal, state and local government web resources and services.